MAU293 FMEE-FIMP
Flight info
| Callsign | MAU293 |
|---|---|
| Flight time | 0h 28m |
| Altitude | 15000 |
| Route | EPTEK2J EPTEK EPTEK2E |
| Aircraft | A359/H-SDE2E3GHIJ3J4J5LM1ORWXY/LB1D1 |
Departure
| Time | 2026-05-07 19:23 |
|---|---|
| Airport | Roland Garros Airport (FMEE) |
Arrival
| Time | 2026-05-07 19:51 |
|---|---|
| Airport | Sir Seewoosagur Ramgoolam International Airport (FIMP) |
| Time | Latitude | Longitude | Altitude | Speed | Heading |
|---|---|---|---|---|---|
| 2026-05-07 19:00 | -20.89098 | 55.51301 | 85 ft | 0 kts | 209° |
| 2026-05-07 19:13 | -20.89090 | 55.51305 | 87 ft | 4 kts | 209° |
| 2026-05-07 19:13 | -20.89067 | 55.51320 | 85 ft | 4 kts | 214° |
| 2026-05-07 19:13 | -20.89050 | 55.51335 | 86 ft | 2 kts | 233° |
| 2026-05-07 19:14 | -20.89045 | 55.51345 | 86 ft | 2 kts | 266° |
| 2026-05-07 19:14 | -20.89046 | 55.51357 | 86 ft | 2 kts | 289° |
| 2026-05-07 19:14 | -20.89050 | 55.51368 | 86 ft | 2 kts | 296° |
| 2026-05-07 19:14 | -20.89052 | 55.51373 | 85 ft | 0 kts | 297° |
| 2026-05-07 19:18 | -20.89038 | 55.51342 | 86 ft | 7 kts | 296° |
| 2026-05-07 19:18 | -20.89011 | 55.51283 | 86 ft | 11 kts | 296° |
| 2026-05-07 19:18 | -20.88974 | 55.51209 | 86 ft | 12 kts | 307° |
| 2026-05-07 19:19 | -20.88925 | 55.51181 | 85 ft | 12 kts | 340° |
| 2026-05-07 19:19 | -20.88910 | 55.51175 | 84 ft | 0 kts | 340° |
| 2026-05-07 19:19 | -20.88900 | 55.51171 | 84 ft | 4 kts | 340° |
| 2026-05-07 19:19 | -20.88846 | 55.51151 | 67 ft | 15 kts | 341° |
| 2026-05-07 19:20 | -20.88737 | 55.51077 | 61 ft | 21 kts | 301° |
| 2026-05-07 19:20 | -20.88690 | 55.50917 | 56 ft | 21 kts | 282° |
| 2026-05-07 19:20 | -20.88660 | 55.50761 | 55 ft | 16 kts | 282° |
| 2026-05-07 19:20 | -20.88638 | 55.50648 | 58 ft | 12 kts | 282° |
| 2026-05-07 19:21 | -20.88610 | 55.50559 | 54 ft | 12 kts | 304° |
| 2026-05-07 19:21 | -20.88580 | 55.50509 | 51 ft | 4 kts | 264° |
| 2026-05-07 19:21 | -20.88591 | 55.50500 | 55 ft | 2 kts | 200° |
| 2026-05-07 19:21 | -20.88605 | 55.50514 | 51 ft | 3 kts | 121° |
| 2026-05-07 19:22 | -20.88615 | 55.50545 | 53 ft | 5 kts | 109° |
| 2026-05-07 19:22 | -20.88624 | 55.50583 | 54 ft | 0 kts | 102° |
| 2026-05-07 19:22 | -20.88628 | 55.50605 | 55 ft | 18 kts | 102° |
| 2026-05-07 19:23 | -20.88714 | 55.51029 | 67 ft | 96 kts | 101° |
| 2026-05-07 19:23 | -20.88905 | 55.51965 | 96 ft | 157 kts | 104° |
| 2026-05-07 19:23 | -20.89076 | 55.53042 | 1040 ft | 146 kts | 96° |
| 2026-05-07 19:23 | -20.88812 | 55.54139 | 1693 ft | 165 kts | 62° |
| 2026-05-07 19:24 | -20.87939 | 55.55104 | 2040 ft | 196 kts | 44° |
| 2026-05-07 19:24 | -20.86848 | 55.56125 | 2418 ft | 223 kts | 46° |
| 2026-05-07 19:24 | -20.85707 | 55.57372 | 2964 ft | 243 kts | 51° |
| 2026-05-07 19:24 | -20.84577 | 55.58755 | 3772 ft | 250 kts | 53° |
| 2026-05-07 19:25 | -20.83455 | 55.60205 | 4651 ft | 255 kts | 54° |
| 2026-05-07 19:25 | -20.82329 | 55.61700 | 5488 ft | 261 kts | 54° |
| 2026-05-07 19:25 | -20.81187 | 55.63234 | 6394 ft | 265 kts | 54° |
| 2026-05-07 19:25 | -20.80041 | 55.64786 | 7295 ft | 269 kts | 54° |
| 2026-05-07 19:26 | -20.78873 | 55.66375 | 8191 ft | 274 kts | 54° |
| 2026-05-07 19:26 | -20.77694 | 55.67983 | 9145 ft | 277 kts | 53° |
| 2026-05-07 19:26 | -20.76492 | 55.69620 | 10015 ft | 283 kts | 53° |
| 2026-05-07 19:26 | -20.75245 | 55.71321 | 10539 ft | 300 kts | 53° |
| 2026-05-07 19:27 | -20.73911 | 55.73141 | 10875 ft | 322 kts | 53° |
| 2026-05-07 19:27 | -20.72490 | 55.75077 | 11251 ft | 340 kts | 53° |
| 2026-05-07 19:27 | -20.71009 | 55.77092 | 11833 ft | 348 kts | 53° |
| 2026-05-07 19:27 | -20.69503 | 55.79142 | 12540 ft | 353 kts | 53° |
| 2026-05-07 19:28 | -20.67978 | 55.81216 | 13253 ft | 357 kts | 54° |
| 2026-05-07 19:28 | -20.66433 | 55.83317 | 13939 ft | 362 kts | 54° |
| 2026-05-07 19:28 | -20.64868 | 55.85446 | 14556 ft | 366 kts | 53° |
| 2026-05-07 19:28 | -20.63293 | 55.87586 | 14951 ft | 368 kts | 54° |
| 2026-05-07 19:29 | -20.61641 | 55.89704 | 15091 ft | 380 kts | 50° |
| 2026-05-07 19:29 | -20.59803 | 55.91834 | 15101 ft | 397 kts | 49° |
| 2026-05-07 19:29 | -20.57899 | 55.93990 | 15102 ft | 400 kts | 49° |
| 2026-05-07 19:29 | -20.55989 | 55.96151 | 15099 ft | 401 kts | 49° |
| 2026-05-07 19:30 | -20.54078 | 55.98316 | 15099 ft | 401 kts | 49° |
| 2026-05-07 19:30 | -20.52190 | 56.00456 | 15101 ft | 401 kts | 49° |
| 2026-05-07 19:30 | -20.50280 | 56.02620 | 15099 ft | 401 kts | 49° |
| 2026-05-07 19:30 | -20.48371 | 56.04786 | 15098 ft | 401 kts | 49° |
| 2026-05-07 19:31 | -20.46463 | 56.06953 | 15096 ft | 401 kts | 49° |
| 2026-05-07 19:31 | -20.44569 | 56.09134 | 15095 ft | 400 kts | 51° |
| 2026-05-07 19:31 | -20.43021 | 56.11574 | 15103 ft | 397 kts | 66° |
| 2026-05-07 19:31 | -20.42240 | 56.14372 | 15101 ft | 394 kts | 84° |
| 2026-05-07 19:32 | -20.42127 | 56.17277 | 15102 ft | 392 kts | 91° |
| 2026-05-07 19:32 | -20.42164 | 56.20186 | 15099 ft | 393 kts | 91° |
| 2026-05-07 19:32 | -20.42204 | 56.23099 | 15097 ft | 393 kts | 91° |
| 2026-05-07 19:32 | -20.42234 | 56.26008 | 15097 ft | 393 kts | 91° |
| 2026-05-07 19:33 | -20.42257 | 56.28924 | 15098 ft | 393 kts | 91° |
| 2026-05-07 19:33 | -20.42276 | 56.31837 | 15099 ft | 393 kts | 91° |
| 2026-05-07 19:33 | -20.42293 | 56.34748 | 15100 ft | 393 kts | 91° |
| 2026-05-07 19:33 | -20.42308 | 56.37662 | 15098 ft | 393 kts | 91° |
| 2026-05-07 19:34 | -20.42322 | 56.40575 | 15099 ft | 393 kts | 91° |
| 2026-05-07 19:34 | -20.42335 | 56.43492 | 15099 ft | 393 kts | 91° |
| 2026-05-07 19:34 | -20.42348 | 56.46407 | 15098 ft | 393 kts | 91° |
| 2026-05-07 19:34 | -20.42360 | 56.49323 | 15098 ft | 393 kts | 91° |
| 2026-05-07 19:35 | -20.42372 | 56.52238 | 15099 ft | 394 kts | 91° |
| 2026-05-07 19:35 | -20.42384 | 56.55159 | 15097 ft | 394 kts | 91° |
| 2026-05-07 19:35 | -20.42394 | 56.58074 | 15101 ft | 393 kts | 91° |
| 2026-05-07 19:35 | -20.42404 | 56.60990 | 15099 ft | 393 kts | 91° |
| 2026-05-07 19:36 | -20.42414 | 56.63861 | 15100 ft | 394 kts | 91° |
| 2026-05-07 19:36 | -20.42422 | 56.66777 | 15100 ft | 394 kts | 91° |
| 2026-05-07 19:36 | -20.42431 | 56.69695 | 15103 ft | 394 kts | 91° |
| 2026-05-07 19:36 | -20.42440 | 56.72613 | 15085 ft | 394 kts | 91° |
| 2026-05-07 19:37 | -20.42447 | 56.75493 | 14914 ft | 380 kts | 91° |
| 2026-05-07 19:37 | -20.42454 | 56.78271 | 14546 ft | 370 kts | 91° |
| 2026-05-07 19:37 | -20.42460 | 56.80991 | 14087 ft | 364 kts | 91° |
| 2026-05-07 19:37 | -20.42465 | 56.83671 | 13544 ft | 360 kts | 91° |
| 2026-05-07 19:38 | -20.42471 | 56.86315 | 13026 ft | 354 kts | 91° |
| 2026-05-07 19:38 | -20.42476 | 56.88926 | 12459 ft | 350 kts | 91° |
| 2026-05-07 19:38 | -20.42481 | 56.91503 | 11942 ft | 345 kts | 91° |
| 2026-05-07 19:38 | -20.42485 | 56.94040 | 11460 ft | 340 kts | 91° |
| 2026-05-07 19:39 | -20.42489 | 56.96543 | 11049 ft | 333 kts | 90° |
| 2026-05-07 19:39 | -20.42491 | 56.98955 | 10918 ft | 318 kts | 90° |
| 2026-05-07 19:39 | -20.42495 | 57.01258 | 10787 ft | 303 kts | 91° |
| 2026-05-07 19:39 | -20.42499 | 57.03458 | 10660 ft | 290 kts | 90° |
| 2026-05-07 19:40 | -20.42499 | 57.05570 | 10461 ft | 281 kts | 90° |
| 2026-05-07 19:40 | -20.42501 | 57.07643 | 10128 ft | 279 kts | 90° |
| 2026-05-07 19:40 | -20.42502 | 57.09699 | 9779 ft | 277 kts | 90° |
| 2026-05-07 19:40 | -20.42503 | 57.11768 | 9437 ft | 281 kts | 90° |
| 2026-05-07 19:41 | -20.42503 | 57.13852 | 9098 ft | 280 kts | 90° |
| 2026-05-07 19:41 | -20.42504 | 57.15921 | 8766 ft | 278 kts | 90° |
| 2026-05-07 19:41 | -20.42504 | 57.17976 | 8432 ft | 277 kts | 90° |
| 2026-05-07 19:41 | -20.42504 | 57.20024 | 8098 ft | 276 kts | 90° |
| 2026-05-07 19:42 | -20.42504 | 57.22064 | 7771 ft | 275 kts | 90° |
| 2026-05-07 19:42 | -20.42500 | 57.24098 | 7443 ft | 274 kts | 90° |
| 2026-05-07 19:42 | -20.42249 | 57.26021 | 7134 ft | 275 kts | 73° |
| 2026-05-07 19:42 | -20.41382 | 57.27903 | 6798 ft | 275 kts | 60° |
| 2026-05-07 19:43 | -20.40370 | 57.29642 | 6452 ft | 274 kts | 59° |
| 2026-05-07 19:43 | -20.39363 | 57.31354 | 6103 ft | 272 kts | 59° |
| 2026-05-07 19:43 | -20.38377 | 57.33048 | 5780 ft | 268 kts | 59° |
| 2026-05-07 19:43 | -20.37413 | 57.34715 | 5527 ft | 262 kts | 60° |
| 2026-05-07 19:44 | -20.36510 | 57.36280 | 5398 ft | 250 kts | 60° |
| 2026-05-07 19:44 | -20.35650 | 57.37844 | 5283 ft | 239 kts | 65° |
| 2026-05-07 19:44 | -20.35019 | 57.39439 | 5214 ft | 230 kts | 71° |
| 2026-05-07 19:44 | -20.34484 | 57.41005 | 5119 ft | 220 kts | 71° |
| 2026-05-07 19:45 | -20.33973 | 57.42509 | 5057 ft | 212 kts | 71° |
| 2026-05-07 19:45 | -20.33476 | 57.43959 | 4995 ft | 205 kts | 71° |
| 2026-05-07 19:45 | -20.32999 | 57.45363 | 4905 ft | 197 kts | 72° |
| 2026-05-07 19:45 | -20.32917 | 57.46783 | 4789 ft | 190 kts | 98° |
| 2026-05-07 19:46 | -20.33318 | 57.48100 | 4656 ft | 184 kts | 114° |
| 2026-05-07 19:46 | -20.33890 | 57.49312 | 4448 ft | 184 kts | 115° |
| 2026-05-07 19:46 | -20.34469 | 57.50521 | 4137 ft | 188 kts | 115° |
| 2026-05-07 19:46 | -20.35056 | 57.51754 | 3830 ft | 186 kts | 115° |
| 2026-05-07 19:47 | -20.35637 | 57.52972 | 3544 ft | 183 kts | 115° |
| 2026-05-07 19:47 | -20.36220 | 57.54186 | 3276 ft | 186 kts | 115° |
| 2026-05-07 19:47 | -20.36805 | 57.55404 | 2977 ft | 182 kts | 114° |
| 2026-05-07 19:47 | -20.37366 | 57.56577 | 2702 ft | 173 kts | 114° |
| 2026-05-07 19:48 | -20.37901 | 57.57697 | 2443 ft | 166 kts | 114° |
| 2026-05-07 19:48 | -20.38414 | 57.58770 | 2179 ft | 159 kts | 114° |
| 2026-05-07 19:48 | -20.38904 | 57.59785 | 1962 ft | 151 kts | 115° |
| 2026-05-07 19:48 | -20.39374 | 57.60764 | 1717 ft | 145 kts | 115° |
| 2026-05-07 19:49 | -20.39823 | 57.61705 | 1492 ft | 142 kts | 117° |
| 2026-05-07 19:49 | -20.40269 | 57.62642 | 1257 ft | 141 kts | 117° |
| 2026-05-07 19:49 | -20.40709 | 57.63560 | 1080 ft | 138 kts | 116° |
| 2026-05-07 19:49 | -20.41143 | 57.64460 | 832 ft | 136 kts | 115° |
| 2026-05-07 19:50 | -20.41573 | 57.65346 | 695 ft | 136 kts | 116° |
| 2026-05-07 19:50 | -20.42022 | 57.66258 | 467 ft | 141 kts | 112° |
| 2026-05-07 19:50 | -20.42466 | 57.67198 | 226 ft | 139 kts | 115° |
| 2026-05-07 19:50 | -20.42881 | 57.68049 | 164 ft | 107 kts | 118° |
| 2026-05-07 19:51 | -20.43116 | 57.68546 | 152 ft | 60 kts | 116° |
| 2026-05-07 19:51 | -20.43297 | 57.68924 | 137 ft | 55 kts | 118° |
| 2026-05-07 19:51 | -20.43453 | 57.69240 | 120 ft | 36 kts | 116° |
| 2026-05-07 19:51 | -20.43528 | 57.69360 | 116 ft | 8 kts | 149° |
| 2026-05-07 19:52 | -20.43580 | 57.69356 | 120 ft | 8 kts | 206° |
| 2026-05-07 19:52 | -20.43622 | 57.69333 | 121 ft | 5 kts | 205° |
| 2026-05-07 19:52 | -20.43646 | 57.69317 | 125 ft | 3 kts | 221° |
| 2026-05-07 19:52 | -20.43654 | 57.69298 | 132 ft | 6 kts | 254° |
| 2026-05-07 19:53 | -20.43640 | 57.69231 | 139 ft | 10 kts | 293° |
| 2026-05-07 19:53 | -20.43604 | 57.69154 | 146 ft | 13 kts | 295° |
| 2026-05-07 19:53 | -20.43569 | 57.69079 | 154 ft | 9 kts | 300° |
| 2026-05-07 19:53 | -20.43542 | 57.69026 | 159 ft | 7 kts | 298° |
| 2026-05-07 19:54 | -20.43515 | 57.68972 | 161 ft | 13 kts | 297° |
| 2026-05-07 19:54 | -20.43461 | 57.68860 | 164 ft | 20 kts | 298° |
| 2026-05-07 19:54 | -20.43399 | 57.68720 | 169 ft | 21 kts | 295° |
| 2026-05-07 19:54 | -20.43332 | 57.68577 | 172 ft | 22 kts | 296° |
| 2026-05-07 19:55 | -20.43267 | 57.68442 | 176 ft | 17 kts | 281° |
| 2026-05-07 19:55 | -20.43291 | 57.68357 | 183 ft | 7 kts | 258° |
| 2026-05-07 19:55 | -20.43286 | 57.68323 | 198 ft | 4 kts | 288° |
| 2026-05-07 19:55 | -20.43271 | 57.68285 | 188 ft | 7 kts | 296° |
| 2026-05-07 19:56 | -20.43244 | 57.68227 | 194 ft | 9 kts | 297° |
| 2026-05-07 19:56 | -20.43217 | 57.68171 | 199 ft | 8 kts | 297° |
| 2026-05-07 19:56 | -20.43196 | 57.68128 | 201 ft | 5 kts | 297° |
| 2026-05-07 19:56 | -20.43179 | 57.68091 | 204 ft | 6 kts | 297° |
| 2026-05-07 19:57 | -20.43154 | 57.68039 | 201 ft | 11 kts | 297° |
| 2026-05-07 19:57 | -20.43114 | 57.67958 | 197 ft | 13 kts | 299° |
| 2026-05-07 19:57 | -20.43073 | 57.67876 | 201 ft | 12 kts | 297° |
| 2026-05-07 19:57 | -20.43037 | 57.67803 | 200 ft | 10 kts | 297° |
| 2026-05-07 19:58 | -20.43032 | 57.67745 | 195 ft | 6 kts | 236° |
| 2026-05-07 19:58 | -20.43062 | 57.67725 | 193 ft | 4 kts | 209° |
| 2026-05-07 19:58 | -20.43082 | 57.67713 | 191 ft | 2 kts | 208° |
| 2026-05-07 19:58 | -20.43087 | 57.67710 | 192 ft | 0 kts | 208° |
| 2026-05-07 19:59 | -20.43089 | 57.67710 | 192 ft | 0 kts | 208° |